Time;durP1;ratioP1;P1;durP2;ratioP2;P2;SDS_P1;SDS_P2;PMS_P1;PMS_P2;Temp;Humidity;BMP_temperature;BMP_pressure;BME280_temperature;BME280_humidity;BME280_pressure;Samples;Min_cycle;Max_cycle;Signal;HPM_P1;HPM_P2
2023/07/01 00:02:18;;;;;;;1.00;0.70;;;;;;;29.33;33.01;100715.03;5045014;27;97300;-80
2023/07/01 00:04:44;;;;;;;1.60;0.93;;;;;;;29.33;32.91;100713.13;5054607;27;96726;-80
2023/07/01 00:07:11;;;;;;;1.00;0.60;;;;;;;29.34;32.91;100700.13;5060203;27;97905;-81
2023/07/01 00:09:38;;;;;;;1.50;0.95;;;;;;;29.33;33.00;100693.75;5061732;27;97075;-80
2023/07/01 00:12:04;;;;;;;1.38;0.63;;;;;;;29.33;32.98;100690.16;5069711;27;97091;-81
2023/07/01 00:14:31;;;;;;;1.55;0.60;;;;;;;29.33;33.12;100692.91;5070208;27;96146;-80
2023/07/01 00:16:58;;;;;;;1.20;0.80;;;;;;;29.32;32.96;100686.53;5065430;27;96807;-81
2023/07/01 00:19:24;;;;;;;1.05;0.60;;;;;;;29.32;33.01;100683.78;5068057;27;97013;-81
2023/07/01 00:21:51;;;;;;;1.30;0.60;;;;;;;29.32;33.04;100681.00;5070918;27;96940;-81
2023/07/01 00:24:17;;;;;;;1.25;0.75;;;;;;;29.31;33.08;100671.00;5072115;27;96561;-80
2023/07/01 00:26:44;;;;;;;1.63;0.85;;;;;;;29.32;33.13;100669.09;5060651;27;97642;-81
2023/07/01 00:29:10;;;;;;;1.20;0.80;;;;;;;29.31;32.97;100662.72;5060500;27;99626;-80
2023/07/01 00:31:37;;;;;;;0.95;0.73;;;;;;;29.32;33.18;100655.25;5063320;27;96803;-80
2023/07/01 00:34:04;;;;;;;1.75;0.90;;;;;;;29.31;32.87;100653.56;5063830;27;97014;-80
2023/07/01 00:36:30;;;;;;;1.65;0.82;;;;;;;29.31;32.87;100650.81;5056043;27;99143;-80
2023/07/01 00:38:57;;;;;;;1.70;0.90;;;;;;;29.31;33.14;100654.41;5044325;27;99770;-80
2023/07/01 00:41:24;;;;;;;1.45;0.80;;;;;;;29.30;33.20;100649.97;5057318;27;97517;-80
2023/07/01 00:43:50;;;;;;;0.95;0.80;;;;;;;29.31;32.97;100650.81;5057342;27;97250;-80
2023/07/01 00:46:17;;;;;;;1.55;0.73;;;;;;;29.31;32.99;100642.50;5041729;27;97775;-80
2023/07/01 00:48:44;;;;;;;1.27;0.70;;;;;;;29.30;32.91;100640.81;5057057;27;98476;-80
2023/07/01 00:51:10;;;;;;;1.40;0.70;;;;;;;29.30;32.96;100638.06;5057166;27;96769;-80
2023/07/01 00:53:39;;;;;;;1.20;0.90;;;;;;;29.29;33.09;100623.38;5054473;27;99100;-81
2023/07/01 00:56:06;;;;;;;1.83;0.90;;;;;;;29.29;33.03;100622.53;5054579;27;96907;-80
2023/07/01 00:58:34;;;;;;;1.20;0.75;;;;;;;29.29;32.86;100611.47;5042654;27;97373;-80
2023/07/01 01:01:12;;;;;;;0.65;0.55;;;;;;;29.29;33.21;100614.25;5055123;27;96842;-80
2023/07/01 01:03:53;;;;;;;1.38;0.80;;;;;;;29.30;32.97;100613.16;5037575;27;97383;-80
2023/07/01 01:06:33;;;;;;;2.10;1.00;;;;;;;29.28;33.14;100610.63;5037054;27;99289;-80
2023/07/01 01:09:15;;;;;;;1.33;0.80;;;;;;;29.27;33.04;100608.94;5054333;27;96634;-80
2023/07/01 01:11:46;;;;;;;1.20;0.80;;;;;;;29.27;33.16;100597.88;5044937;27;96638;-80
2023/07/01 01:14:15;;;;;;;1.75;0.82;;;;;;;29.28;33.20;100607.03;5049436;27;97117;-80
2023/07/01 01:16:43;;;;;;;0.95;0.70;;;;;;;29.27;32.99;100595.13;5045383;27;97141;-80
2023/07/01 01:19:37;;;;;;;1.10;0.60;;;;;;;29.28;33.06;100595.97;5037169;27;100160;-81
2023/07/01 01:22:26;;;;;;;1.65;0.80;;;;;;;29.26;33.15;100589.81;5053905;27;96790;-81
2023/07/01 01:25:05;;;;;;;1.60;0.90;;;;;;;29.24;33.06;100586.44;5055021;27;97387;-80
2023/07/01 01:27:40;;;;;;;1.67;0.80;;;;;;;29.24;33.09;100590.06;5026335;28;100968;-81
2023/07/01 01:30:09;;;;;;;1.02;0.70;;;;;;;29.24;33.03;100590.06;5047914;27;98855;-80
2023/07/01 01:32:35;;;;;;;1.45;0.85;;;;;;;29.24;33.10;100581.75;5055232;27;96780;-80
2023/07/01 01:35:03;;;;;;;1.13;0.80;;;;;;;29.25;33.41;100585.38;5051599;27;97091;-80
2023/07/01 01:37:40;;;;;;;1.58;0.68;;;;;;;29.25;33.10;100583.44;5045329;27;98893;-80
2023/07/01 01:40:17;;;;;;;1.70;0.85;;;;;;;29.25;33.05;100582.59;5032244;28;99637;-81
2023/07/01 01:42:45;;;;;;;1.40;0.90;;;;;;;29.24;33.25;100575.38;5067535;27;96723;-80
2023/07/01 01:45:18;;;;;;;1.13;0.93;;;;;;;29.24;33.06;100573.47;5054541;27;96879;-80
2023/07/01 01:47:47;;;;;;;1.00;0.88;;;;;;;29.23;33.30;100566.25;5036880;27;98618;-80
2023/07/01 01:50:16;;;;;;;1.33;0.70;;;;;;;29.24;33.09;100565.16;5046598;27;96547;-81
2023/07/01 01:52:42;;;;;;;1.80;1.00;;;;;;;29.23;33.12;100563.47;5052153;27;96916;-80
2023/07/01 01:55:13;;;;;;;1.58;0.90;;;;;;;29.24;33.24;100553.25;5053541;27;97219;-80
2023/07/01 01:57:39;;;;;;;0.82;0.77;;;;;;;29.24;33.15;100551.34;5052583;27;99804;-80
2023/07/01 02:00:08;;;;;;;0.80;0.60;;;;;;;29.24;32.94;100551.34;5052357;27;100146;-81
2023/07/01 02:02:41;;;;;;;1.27;0.80;;;;;;;29.24;33.18;100544.97;5041903;27;97382;-80
2023/07/01 02:05:08;;;;;;;1.23;0.70;;;;;;;29.24;33.28;100536.66;5053447;27;96993;-80
2023/07/01 02:07:36;;;;;;;1.13;0.73;;;;;;;29.23;33.06;100538.59;5054512;27;97006;-81
2023/07/01 02:10:04;;;;;;;1.20;0.80;;;;;;;29.23;33.21;100534.97;5036176;27;96838;-81
2023/07/01 02:12:31;;;;;;;1.20;0.70;;;;;;;29.23;33.13;100529.44;5062285;27;96573;-81
2023/07/01 02:14:58;;;;;;;1.30;0.80;;;;;;;29.23;33.16;100529.44;5058361;27;96867;-81
2023/07/01 02:17:24;;;;;;;1.40;0.80;;;;;;;29.23;33.19;100523.91;5057946;27;96774;-81
2023/07/01 02:19:51;;;;;;;1.05;0.77;;;;;;;29.23;33.16;100515.63;5058621;27;96805;-81
2023/07/01 02:22:18;;;;;;;1.02;0.88;;;;;;;29.23;33.16;100526.69;5055403;27;96945;-80
2023/07/01 02:24:44;;;;;;;1.20;0.68;;;;;;;29.23;33.13;100521.16;5044461;27;96879;-80
2023/07/01 02:27:11;;;;;;;0.93;0.63;;;;;;;29.22;32.98;100517.53;5056121;27;97125;-80
2023/07/01 02:29:38;;;;;;;0.80;0.80;;;;;;;29.23;33.18;100518.38;5055534;27;100537;-80
2023/07/01 02:32:05;;;;;;;1.15;0.60;;;;;;;29.22;33.01;100514.78;5039515;27;96932;-80
2023/07/01 02:34:32;;;;;;;1.40;0.70;;;;;;;29.22;33.24;100506.47;5057791;27;97241;-80
2023/07/01 02:36:58;;;;;;;1.17;0.70;;;;;;;29.23;33.24;100499.03;5055531;27;97192;-80
2023/07/01 02:39:25;;;;;;;1.10;0.65;;;;;;;29.22;33.13;100497.34;5038359;27;98473;-80
2023/07/01 02:41:51;;;;;;;1.48;0.95;;;;;;;29.22;33.30;100502.88;5057435;27;96887;-80
2023/07/01 02:44:18;;;;;;;0.80;0.57;;;;;;;29.21;33.18;100499.28;5055503;27;97235;-80
2023/07/01 02:46:45;;;;;;;1.10;0.80;;;;;;;29.21;33.30;100502.03;5036772;27;96963;-80
2023/07/01 02:49:12;;;;;;;0.82;0.75;;;;;;;29.22;33.16;100497.34;5054590;27;96920;-80
2023/07/01 02:51:38;;;;;;;1.20;0.90;;;;;;;29.21;33.28;100495.66;5056156;27;96905;-81
2023/07/01 02:54:05;;;;;;;1.30;0.70;;;;;;;29.21;33.06;100493.72;5056594;27;97194;-80
2023/07/01 02:56:32;;;;;;;1.10;0.80;;;;;;;29.21;33.16;100498.44;5056696;27;99201;-80
2023/07/01 02:58:58;;;;;;;1.30;0.85;;;;;;;29.19;33.35;100495.91;5052600;27;100926;-80
2023/07/01 03:01:25;;;;;;;1.10;0.70;;;;;;;29.20;32.91;100493.97;5039040;27;97065;-80
2023/07/01 03:03:51;;;;;;;0.70;0.60;;;;;;;29.20;33.36;100499.50;5057098;27;96770;-80
2023/07/01 03:06:18;;;;;;;1.27;0.75;;;;;;;29.20;33.29;100496.75;5054685;27;96813;-80
2023/07/01 03:08:45;;;;;;;1.25;0.80;;;;;;;29.20;33.11;100499.50;5052253;27;98941;-81
2023/07/01 03:11:11;;;;;;;1.60;0.88;;;;;;;29.21;33.11;100503.97;5035802;27;96723;-80
2023/07/01 03:13:38;;;;;;;1.55;0.80;;;;;;;29.20;33.23;100493.97;5052029;27;96917;-80
2023/07/01 03:16:06;;;;;;;1.30;0.65;;;;;;;29.20;33.37;100494.81;5053048;27;97841;-80
2023/07/01 03:18:33;;;;;;;1.33;0.80;;;;;;;29.20;33.23;100491.22;5052297;27;97412;-81
2023/07/01 03:21:00;;;;;;;0.68;0.63;;;;;;;29.19;33.16;100490.38;5051544;27;97606;-80
2023/07/01 03:23:28;;;;;;;0.80;0.63;;;;;;;29.19;33.19;100482.06;5051032;27;96738;-80
2023/07/01 03:25:55;;;;;;;1.13;0.70;;;;;;;29.19;33.32;100492.28;5052653;27;97075;-80
2023/07/01 03:28:22;;;;;;;1.17;0.80;;;;;;;29.20;33.16;100483.75;5051201;27;98756;-80
2023/07/01 03:30:49;;;;;;;0.95;0.80;;;;;;;29.18;33.43;100477.63;5051249;27;97079;-80
2023/07/01 03:33:17;;;;;;;0.80;0.70;;;;;;;29.18;33.13;100480.38;5049661;27;96761;-81
2023/07/01 03:35:44;;;;;;;1.00;0.60;;;;;;;29.18;33.15;100474.84;5050737;27;97645;-81
2023/07/01 03:38:13;;;;;;;1.48;0.82;;;;;;;29.18;33.25;100468.47;5052648;27;97950;-81
2023/07/01 03:40:40;;;;;;;1.25;0.75;;;;;;;29.18;33.34;100468.47;5035325;27;96837;-81
2023/07/01 03:43:06;;;;;;;1.08;0.70;;;;;;;29.18;33.15;100460.19;5056007;27;96616;-81
2023/07/01 03:45:33;;;;;;;0.82;0.60;;;;;;;29.18;33.29;100457.41;5053604;27;99288;-81
2023/07/01 03:48:00;;;;;;;2.13;1.00;;;;;;;29.17;32.84;100458.50;5054703;27;96953;-80
2023/07/01 03:50:26;;;;;;;0.90;0.70;;;;;;;29.18;33.12;100457.41;5055666;27;96934;-80
2023/07/01 03:52:53;;;;;;;1.38;0.88;;;;;;;29.18;33.28;100457.41;5049949;27;97585;-80
2023/07/01 03:55:19;;;;;;;0.75;0.70;;;;;;;29.17;33.36;100456.59;5052072;27;97362;-80
2023/07/01 03:57:46;;;;;;;1.15;0.70;;;;;;;29.17;33.18;100450.22;5054399;27;99095;-81
2023/07/01 04:00:19;;;;;;;1.13;0.65;;;;;;;29.17;33.13;100461.28;5048347;27;96912;-81
2023/07/01 04:02:50;;;;;;;0.95;0.60;;;;;;;29.16;33.24;100457.66;5035833;27;97731;-80
2023/07/01 04:05:18;;;;;;;0.95;0.70;;;;;;;29.16;33.29;100449.38;5049712;27;96919;-81
2023/07/01 04:07:47;;;;;;;1.25;0.70;;;;;;;29.16;33.09;100445.75;5037695;27;99225;-80
2023/07/01 04:10:14;;;;;;;1.08;0.70;;;;;;;29.15;33.36;100436.63;5054575;27;97277;-81
2023/07/01 04:12:41;;;;;;;1.10;0.70;;;;;;;29.15;33.13;100444.91;5055970;27;96511;-80
2023/07/01 04:15:11;;;;;;;0.90;0.63;;;;;;;29.16;33.21;100443.00;5054986;27;98246;-81
2023/07/01 04:17:41;;;;;;;1.65;0.80;;;;;;;29.16;33.25;100443.00;5054816;27;97166;-80
2023/07/01 04:20:09;;;;;;;1.88;0.60;;;;;;;29.14;33.05;100437.69;5053733;27;96547;-81
2023/07/01 04:22:36;;;;;;;0.90;0.70;;;;;;;29.13;33.36;100427.72;5055564;27;96842;-81
2023/07/01 04:25:04;;;;;;;1.20;0.80;;;;;;;29.14;33.04;100434.09;5052807;27;97767;-81
2023/07/01 04:27:30;;;;;;;2.00;0.90;;;;;;;29.15;33.14;100435.78;5054020;27;97975;-80
2023/07/01 04:29:57;;;;;;;1.40;0.80;;;;;;;29.14;33.08;100423.03;5055606;27;96753;-81
2023/07/01 04:32:24;;;;;;;0.90;0.70;;;;;;;29.14;33.16;100421.09;5055089;27;98690;-80
2023/07/01 04:34:50;;;;;;;1.02;0.60;;;;;;;29.13;33.36;100429.66;5036717;27;97724;-81
2023/07/01 04:37:17;;;;;;;2.42;1.00;;;;;;;29.14;32.98;100425.81;5053108;27;96636;-81
2023/07/01 04:39:43;;;;;;;1.33;0.90;;;;;;;29.13;33.15;100413.06;5055354;27;96812;-81
2023/07/01 04:42:10;;;;;;;1.10;0.70;;;;;;;29.12;33.06;100406.69;5054436;27;96783;-80
2023/07/01 04:44:37;;;;;;;1.48;0.70;;;;;;;29.12;33.30;100406.69;5052504;27;99380;-80
2023/07/01 04:47:03;;;;;;;1.52;0.80;;;;;;;29.13;33.36;100404.75;5055298;27;98507;-80
2023/07/01 04:49:30;;;;;;;0.98;0.70;;;;;;;29.12;33.21;100408.59;5036956;27;97105;-81
2023/07/01 04:51:57;;;;;;;1.00;0.70;;;;;;;29.12;33.25;100403.06;5051168;27;96910;-81
2023/07/01 04:54:24;;;;;;;1.35;0.70;;;;;;;29.12;33.44;100398.38;5055087;27;97931;-80
2023/07/01 04:56:50;;;;;;;1.30;0.93;;;;;;;29.12;33.55;100405.84;5050536;27;99249;-80
2023/07/01 04:59:17;;;;;;;1.20;0.70;;;;;;;29.10;33.22;100401.41;5050381;27;96800;-81
2023/07/01 05:01:43;;;;;;;1.10;0.70;;;;;;;29.10;33.42;100395.88;5042525;27;97075;-80
2023/07/01 05:04:10;;;;;;;1.10;0.90;;;;;;;29.10;33.35;100398.63;5046726;27;99800;-81
2023/07/01 05:06:37;;;;;;;0.52;0.50;;;;;;;29.10;33.27;100390.34;5047941;27;96682;-81
2023/07/01 05:09:04;;;;;;;0.90;0.75;;;;;;;29.10;33.31;100387.56;5054860;27;96722;-80
2023/07/01 05:11:31;;;;;;;0.93;0.70;;;;;;;29.10;33.08;100395.03;5055547;27;97185;-80
2023/07/01 05:13:57;;;;;;;1.77;0.75;;;;;;;29.09;33.22;100394.19;5054613;27;96812;-81
2023/07/01 05:16:24;;;;;;;0.88;0.65;;;;;;;29.09;33.46;100383.13;5053297;27;97078;-80
2023/07/01 05:18:51;;;;;;;1.55;0.88;;;;;;;29.09;33.30;100387.81;5043473;27;96820;-81
2023/07/01 05:21:17;;;;;;;1.00;0.70;;;;;;;29.10;33.49;100386.72;5033528;27;97110;-80
2023/07/01 05:23:44;;;;;;;1.10;0.80;;;;;;;29.09;33.32;100387.81;5053011;27;99144;-81
2023/07/01 05:26:10;;;;;;;1.30;0.80;;;;;;;29.08;33.34;100386.97;5053595;27;98587;-81
2023/07/01 05:28:37;;;;;;;0.88;0.68;;;;;;;29.09;33.28;100388.66;5053441;27;97388;-81
2023/07/01 05:31:03;;;;;;;1.27;0.80;;;;;;;29.09;33.46;100396.09;5035690;27;96833;-81
2023/07/01 05:33:30;;;;;;;1.35;0.90;;;;;;;29.09;33.25;100385.88;5052582;27;99510;-80
2023/07/01 05:35:57;;;;;;;1.23;0.70;;;;;;;29.08;33.27;100386.13;5055038;27;96728;-80
2023/07/01 05:38:23;;;;;;;1.25;0.70;;;;;;;29.08;33.35;100381.44;5050834;27;96756;-81
2023/07/01 05:40:50;;;;;;;0.90;0.70;;;;;;;29.08;33.37;100384.22;5048191;27;96873;-81
2023/07/01 05:43:17;;;;;;;1.60;0.80;;;;;;;29.08;33.63;100383.38;5052431;27;97020;-81
2023/07/01 05:45:43;;;;;;;1.00;0.77;;;;;;;29.07;33.45;100376.16;5052028;27;99950;-81
2023/07/01 05:48:10;;;;;;;1.05;0.60;;;;;;;29.07;33.22;100379.75;5049954;27;96829;-80
2023/07/01 05:50:38;;;;;;;0.70;0.52;;;;;;;29.07;33.30;100382.53;5054161;27;96798;-81
2023/07/01 05:53:04;;;;;;;1.33;0.60;;;;;;;29.07;33.41;100373.38;5049422;27;96799;-81
2023/07/01 05:55:31;;;;;;;1.20;0.77;;;;;;;29.06;33.21;100369.78;5055263;27;98257;-81
2023/07/01 05:57:57;;;;;;;1.35;0.63;;;;;;;29.06;33.41;100368.94;5057787;27;96797;-80
2023/07/01 06:00:24;;;;;;;1.08;0.80;;;;;;;29.07;33.18;100368.69;5053841;27;96939;-80
2023/07/01 06:02:51;;;;;;;1.23;0.80;;;;;;;29.06;33.47;100377.22;5043824;27;96580;-80
2023/07/01 06:05:17;;;;;;;0.90;0.70;;;;;;;29.06;33.24;100366.19;5042059;27;97891;-80
2023/07/01 06:07:44;;;;;;;1.73;0.70;;;;;;;29.06;33.53;100366.19;5055951;27;97194;-81
2023/07/01 06:10:11;;;;;;;0.90;0.80;;;;;;;29.05;33.32;100370.88;5057009;27;97041;-81
2023/07/01 06:12:37;;;;;;;0.70;0.60;;;;;;;29.05;33.27;100370.03;5055621;27;100053;-80
2023/07/01 06:15:04;;;;;;;1.33;0.63;;;;;;;29.06;33.44;100368.94;5056129;27;98606;-80
2023/07/01 06:17:31;;;;;;;1.55;0.70;;;;;;;29.05;33.54;100358.97;5057615;27;96741;-81
2023/07/01 06:19:57;;;;;;;0.90;0.70;;;;;;;29.05;33.50;100362.56;5054959;27;96868;-80
2023/07/01 06:22:24;;;;;;;0.95;0.60;;;;;;;29.04;33.45;100366.41;5056134;27;96946;-80
2023/07/01 06:24:51;;;;;;;0.82;0.70;;;;;;;29.04;33.47;100369.19;5056617;27;96896;-80
2023/07/01 06:27:17;;;;;;;1.05;0.77;;;;;;;29.05;33.55;100370.88;5039007;27;96587;-81
2023/07/01 06:29:44;;;;;;;1.17;0.63;;;;;;;29.04;33.45;100360.88;5056598;27;96887;-80
2023/07/01 06:32:10;;;;;;;1.05;0.70;;;;;;;29.04;33.60;100362.81;5056264;27;99010;-80
2023/07/01 06:34:37;;;;;;;1.65;0.63;;;;;;;29.04;33.42;100363.66;5056594;27;98995;-81
2023/07/01 06:37:04;;;;;;;0.80;0.60;;;;;;;29.04;33.48;100357.28;5057072;27;96764;-81
2023/07/01 06:39:30;;;;;;;0.77;0.50;;;;;;;29.03;33.30;100356.44;5055769;27;96933;-80
2023/07/01 06:41:57;;;;;;;1.77;0.75;;;;;;;29.03;33.46;100356.44;5053478;27;96659;-81
2023/07/01 06:44:24;;;;;;;1.27;0.80;;;;;;;29.03;33.20;100361.97;5049775;27;97389;-81
2023/07/01 06:46:50;;;;;;;1.63;0.90;;;;;;;29.03;33.36;100356.44;5056913;27;96723;-81
2023/07/01 06:49:17;;;;;;;1.10;0.80;;;;;;;29.03;33.48;100358.38;5052141;27;96940;-80
2023/07/01 06:51:43;;;;;;;1.30;0.80;;;;;;;29.02;33.37;100352.00;5038500;27;98400;-80
2023/07/01 06:54:10;;;;;;;0.93;0.75;;;;;;;29.02;33.54;100357.53;5055960;27;98628;-81
2023/07/01 06:56:37;;;;;;;0.85;0.70;;;;;;;29.03;33.41;100353.69;5054576;27;96693;-80
2023/07/01 06:59:04;;;;;;;1.23;0.85;;;;;;;29.02;33.35;100349.22;5055983;27;96841;-80
2023/07/01 07:01:32;;;;;;;1.17;0.90;;;;;;;29.02;33.62;100360.28;5043575;27;99898;-80
2023/07/01 07:03:58;;;;;;;1.55;0.90;;;;;;;29.02;33.40;100354.75;5054853;27;96746;-80
2023/07/01 07:06:25;;;;;;;0.93;0.60;;;;;;;29.02;33.49;100351.16;5057782;27;97095;-81
2023/07/01 07:08:51;;;;;;;1.10;0.70;;;;;;;29.02;33.43;100351.16;5038678;27;96660;-80
2023/07/01 07:11:18;;;;;;;1.27;0.95;;;;;;;29.02;33.48;100354.75;5047088;27;98162;-80
2023/07/01 07:13:45;;;;;;;0.98;0.82;;;;;;;29.02;33.56;100352.00;5036069;27;98605;-81
2023/07/01 07:16:11;;;;;;;1.48;0.77;;;;;;;29.02;33.49;100340.94;5055520;27;96767;-80
2023/07/01 07:18:38;;;;;;;0.50;0.40;;;;;;;29.01;33.75;100342.03;5056923;27;97266;-80
2023/07/01 07:21:05;;;;;;;0.82;0.68;;;;;;;29.01;33.59;100341.19;5054747;27;98449;-80
2023/07/01 07:23:31;;;;;;;0.93;0.63;;;;;;;29.01;33.60;100336.50;5032967;27;99565;-81
2023/07/01 07:25:58;;;;;;;1.20;0.80;;;;;;;29.02;33.49;100340.09;5052904;27;96947;-80
2023/07/01 07:28:24;;;;;;;1.15;0.50;;;;;;;29.01;33.58;100342.03;5048125;27;96803;-80
2023/07/01 07:30:51;;;;;;;0.68;0.50;;;;;;;29.02;33.71;100345.63;5048373;27;97012;-81
2023/07/01 07:33:17;;;;;;;1.38;0.82;;;;;;;29.02;33.76;100342.84;5055334;27;97564;-80
2023/07/01 07:35:45;;;;;;;0.98;0.60;;;;;;;29.01;33.70;100333.72;5037282;27;98215;-80
2023/07/01 07:38:11;;;;;;;1.40;1.00;;;;;;;29.01;33.63;100338.41;5055625;27;97125;-80
2023/07/01 07:40:38;;;;;;;1.17;0.80;;;;;;;29.02;33.69;100349.22;5053511;27;98110;-80
2023/07/01 07:43:10;;;;;;;0.77;0.60;;;;;;;29.02;33.71;100337.34;5052429;27;97442;-80
2023/07/01 07:45:37;;;;;;;1.13;0.70;;;;;;;29.00;33.75;100339.50;5049409;27;97791;-80
2023/07/01 07:48:05;;;;;;;1.52;0.60;;;;;;;29.00;33.72;100340.34;5056274;27;98005;-80
2023/07/01 07:50:35;;;;;;;0.70;0.50;;;;;;;29.01;33.64;100335.66;5056132;27;97012;-80
2023/07/01 07:53:03;;;;;;;1.73;0.60;;;;;;;29.00;33.70;100340.34;5052007;27;97802;-80
2023/07/01 07:55:33;;;;;;;0.93;0.60;;;;;;;29.00;33.64;100334.81;5049930;27;96707;-80
2023/07/01 07:58:01;;;;;;;1.17;0.85;;;;;;;28.99;33.64;100333.13;5051843;27;96842;-80
2023/07/01 08:00:28;;;;;;;0.68;0.50;;;;;;;28.98;33.58;100334.19;5048799;27;97013;-80
2023/07/01 08:02:54;;;;;;;0.55;0.50;;;;;;;29.00;33.77;100325.66;5051424;27;96849;-80
2023/07/01 08:05:23;;;;;;;0.93;0.70;;;;;;;28.99;33.61;100327.59;5047989;27;96987;-80
2023/07/01 08:07:50;;;;;;;0.90;0.70;;;;;;;28.98;33.64;100323.13;5047763;27;97290;-80
2023/07/01 08:10:17;;;;;;;1.00;0.47;;;;;;;28.99;33.66;100332.28;5049770;27;96804;-80
2023/07/01 08:12:44;;;;;;;0.60;0.50;;;;;;;28.99;33.77;100321.22;5045170;27;96848;-80
2023/07/01 08:15:10;;;;;;;0.98;0.70;;;;;;;28.99;33.76;100327.59;5049958;27;96970;-81
2023/07/01 08:17:37;;;;;;;0.90;0.60;;;;;;;28.99;33.98;100326.75;5055067;27;97099;-80
2023/07/01 08:20:04;;;;;;;1.15;0.70;;;;;;;28.99;33.75;100324.00;5045671;27;100185;-79
2023/07/01 08:22:30;;;;;;;0.70;0.50;;;;;;;28.98;33.54;100320.34;5044869;27;96667;-80
2023/07/01 08:24:58;;;;;;;0.80;0.50;;;;;;;28.99;33.80;100315.69;5050310;27;96854;-80
2023/07/01 08:27:24;;;;;;;0.90;0.50;;;;;;;28.98;33.71;100317.59;5046381;27;98063;-80
2023/07/01 08:29:51;;;;;;;1.27;0.82;;;;;;;28.98;33.82;100314.81;5045782;27;96879;-80
2023/07/01 08:32:17;;;;;;;0.80;0.52;;;;;;;28.98;33.67;100323.13;5048071;27;97399;-79
2023/07/01 08:34:44;;;;;;;1.23;0.68;;;;;;;28.98;34.06;100320.34;5047038;27;96867;-80
2023/07/01 08:37:11;;;;;;;1.00;0.50;;;;;;;28.98;33.78;100319.50;5047174;27;96873;-80
2023/07/01 08:39:37;;;;;;;1.65;0.82;;;;;;;28.97;34.16;100318.66;5030743;27;100255;-80
2023/07/01 08:42:09;;;;;;;0.80;0.60;;;;;;;28.99;33.90;100316.53;5052834;27;96903;-80
2023/07/01 08:44:39;;;;;;;0.63;0.43;;;;;;;28.99;33.90;100319.31;5052369;27;96841;-80
2023/07/01 08:47:06;;;;;;;0.88;0.55;;;;;;;28.97;33.96;100313.13;5046700;27;96929;-80
2023/07/01 08:49:34;;;;;;;1.92;0.60;;;;;;;28.99;33.94;100315.69;5048281;27;98472;-80
2023/07/01 08:52:10;;;;;;;0.77;0.70;;;;;;;28.98;33.94;100312.06;5043530;27;97897;-80
2023/07/01 08:54:38;;;;;;;1.08;0.65;;;;;;;28.97;34.11;100312.31;5041660;27;97030;-79
2023/07/01 08:57:07;;;;;;;0.50;0.50;;;;;;;28.98;33.89;100303.75;5048015;27;96969;-79
2023/07/01 08:59:34;;;;;;;1.00;0.50;;;;;;;28.97;33.95;100313.13;5047519;27;96599;-79
2023/07/01 09:02:01;;;;;;;1.30;0.75;;;;;;;28.98;34.00;100309.28;5051241;27;97006;-80
2023/07/01 09:04:28;;;;;;;1.00;0.70;;;;;;;28.98;34.09;100312.06;5061845;27;97384;-80
2023/07/01 09:06:55;;;;;;;1.33;0.80;;;;;;;28.97;34.18;100307.63;5049473;27;97512;-80
2023/07/01 09:09:21;;;;;;;0.93;0.70;;;;;;;28.98;33.92;100305.69;5050315;27;98193;-80
2023/07/01 09:11:48;;;;;;;1.33;0.70;;;;;;;28.97;34.23;100307.63;5050950;27;97375;-80
2023/07/01 09:14:14;;;;;;;1.00;0.65;;;;;;;28.98;34.01;100306.53;5048900;27;96999;-80
2023/07/01 09:16:41;;;;;;;0.82;0.63;;;;;;;28.99;33.89;100304.63;5066091;27;99515;-79
2023/07/01 09:19:16;;;;;;;1.67;0.65;;;;;;;28.99;34.28;100302.72;5046750;27;100664;-80
2023/07/01 09:21:44;;;;;;;0.80;0.60;;;;;;;28.97;34.01;100310.38;5052175;27;97395;-80
2023/07/01 09:24:12;;;;;;;0.77;0.57;;;;;;;28.98;34.05;100308.44;5049306;27;96846;-80
2023/07/01 09:26:40;;;;;;;1.88;0.60;;;;;;;28.98;34.09;100309.28;5047887;27;97086;-80
2023/07/01 09:29:14;;;;;;;1.42;0.70;;;;;;;28.98;34.03;100301.00;5046637;27;100676;-80
2023/07/01 09:31:49;;;;;;;;;;;;;;;28.92;34.12;100303.91;5040388;27;96693;-81
2023/07/01 09:34:18;;;;;;;0.80;0.60;;;;;;;28.94;34.29;100301.72;5052086;27;96703;-80
2023/07/01 09:36:45;;;;;;;0.98;0.75;;;;;;;28.94;34.25;100297.03;5049846;27;97119;-80
2023/07/01 09:39:13;;;;;;;1.17;0.82;;;;;;;28.95;34.22;100298.72;5049832;27;99769;-80
2023/07/01 09:41:39;;;;;;;0.98;0.52;;;;;;;28.96;34.24;100289.34;5040776;27;96744;-82
2023/07/01 09:44:18;;;;;;;1.17;0.65;;;;;;;28.98;34.22;100283.56;5035278;27;96838;-80
2023/07/01 09:46:47;;;;;;;0.98;0.60;;;;;;;28.96;34.29;100288.50;5042649;27;96853;-80
2023/07/01 09:49:13;;;;;;;1.23;0.60;;;;;;;28.97;34.50;100284.66;5035048;27;96884;-80
2023/07/01 09:51:51;;;;;;;1.00;0.65;;;;;;;28.99;34.35;100290.81;5038570;27;96798;-80
2023/07/01 09:54:25;;;;;;;1.27;0.50;;;;;;;28.98;34.29;100278.03;5038356;27;97318;-80
2023/07/01 09:56:53;;;;;;;1.15;0.70;;;;;;;28.97;34.25;100281.91;5035841;27;97315;-80
2023/07/01 09:59:20;;;;;;;0.85;0.60;;;;;;;28.97;34.28;100281.91;5048573;27;96996;-80
2023/07/01 10:01:50;;;;;;;2.13;0.70;;;;;;;28.97;34.46;100282.72;5038895;27;96727;-80
2023/07/01 10:04:28;;;;;;;0.85;0.60;;;;;;;28.98;34.52;100269.75;5014932;28;96746;-80
2023/07/01 10:06:56;;;;;;;1.10;0.60;;;;;;;28.97;34.16;100279.13;5035459;27;96881;-80
2023/07/01 10:09:26;;;;;;;2.08;0.65;;;;;;;28.97;34.38;100273.59;5024936;27;99726;-79
2023/07/01 10:11:55;;;;;;;1.35;0.68;;;;;;;28.98;34.39;100276.13;5015456;27;99641;-80
2023/07/01 10:14:26;;;;;;;1.17;0.65;;;;;;;28.98;34.54;100273.34;5043511;27;96752;-80
2023/07/01 10:16:53;;;;;;;0.90;0.60;;;;;;;28.98;34.49;100264.22;5034714;27;96822;-80
2023/07/01 10:19:31;;;;;;;0.80;0.60;;;;;;;28.99;34.44;100271.47;5033283;27;96810;-80
2023/07/01 10:22:31;;;;;;;0.50;0.40;;;;;;;28.99;34.50;100265.94;5033718;27;97957;-79
2023/07/01 10:25:05;;;;;;;0.85;0.70;;;;;;;28.96;34.53;100264.47;5032243;27;96653;-80
2023/07/01 10:27:59;;;;;;;1.05;0.60;;;;;;;28.96;34.70;100267.22;5048771;27;96656;-80
2023/07/01 10:30:46;;;;;;;0.82;0.60;;;;;;;28.96;34.59;100271.91;5034849;27;98104;-79
2023/07/01 10:33:33;;;;;;;0.90;0.68;;;;;;;28.95;34.63;100265.56;5047618;27;96629;-79
2023/07/01 10:36:07;;;;;;;0.80;0.60;;;;;;;28.95;34.79;100268.31;5045404;27;96675;-80
2023/07/01 10:38:36;;;;;;;1.27;0.60;;;;;;;28.96;34.44;100266.38;5054298;27;97154;-80
2023/07/01 10:41:03;;;;;;;1.20;0.50;;;;;;;28.95;34.69;100268.31;5053098;27;96837;-79
2023/07/01 10:43:37;;;;;;;0.88;0.60;;;;;;;28.97;34.62;100262.53;5047692;27;97655;-80
2023/07/01 10:46:20;;;;;;;0.63;0.60;;;;;;;28.96;34.63;100258.94;5042547;27;97130;-80
2023/07/01 10:49:02;;;;;;;1.02;0.65;;;;;;;28.97;34.67;100257.00;5051604;27;97166;-80
2023/07/01 10:51:43;;;;;;;1.30;0.50;;;;;;;28.96;35.01;100260.84;5046264;27;97188;-80
2023/07/01 10:54:10;;;;;;;1.27;0.52;;;;;;;28.95;34.70;100260.03;5028705;27;97827;-79
2023/07/01 10:56:39;;;;;;;0.93;0.60;;;;;;;28.96;34.92;100255.34;5045366;27;97429;-80
2023/07/01 10:59:26;;;;;;;1.20;0.70;;;;;;;28.97;35.00;100255.09;5029955;27;96851;-79
2023/07/01 11:02:00;;;;;;;0.80;0.57;;;;;;;28.96;34.81;100252.56;5037152;27;97119;-80
2023/07/01 11:04:51;;;;;;;1.13;0.70;;;;;;;28.96;34.75;100258.94;5055898;27;97763;-80
2023/07/01 11:07:25;;;;;;;1.33;0.60;;;;;;;28.95;34.93;100257.25;5055542;27;97361;-80
2023/07/01 11:09:53;;;;;;;0.82;0.60;;;;;;;28.95;35.04;100261.94;5055522;27;97043;-81
2023/07/01 11:12:21;;;;;;;0.60;0.40;;;;;;;28.96;35.09;100258.09;5054019;27;98336;-81
2023/07/01 11:14:52;;;;;;;0.70;0.50;;;;;;;28.96;34.64;100261.69;5050487;27;97433;-80
2023/07/01 11:17:20;;;;;;;0.85;0.50;;;;;;;28.97;34.96;100257.84;5038378;27;96832;-80
2023/07/01 11:19:57;;;;;;;1.45;0.60;;;;;;;28.97;35.01;100260.63;5052835;27;97114;-80
2023/07/01 11:22:24;;;;;;;1.05;0.50;;;;;;;28.97;34.87;100260.63;5046678;27;96583;-80
2023/07/01 11:24:51;;;;;;;1.95;0.60;;;;;;;28.96;35.36;100255.34;5049386;27;96883;-80
2023/07/01 11:27:21;;;;;;;0.98;0.57;;;;;;;28.97;34.89;100251.47;5055005;27;96957;-79
2023/07/01 11:29:48;;;;;;;0.60;0.40;;;;;;;28.97;34.96;100251.47;5055062;27;96997;-80
2023/07/01 11:32:14;;;;;;;1.35;0.60;;;;;;;28.97;35.10;100252.31;5051644;27;96595;-80